Kenny Billiot — WDG6408 — position and weather

sailwx.info

Track history (hours):
 
Tides and Currents Weather Stations Pressure Air Temp Water Temp Dewpoint Dewpoint Depression Visibility Wind Speed Wind Dir Waves Ship Positions

Kenny Billiot

Owner: Wood Resources LLC, Avondale, LA. More information available from US FCC via Universal Licensing System and Coast Guard Vessel Documentation Center.

Last reported at 2018-Feb-23 18:45 UTC. Time now 2018-Feb-25 13:24 UTC.
Position N 29°26' W 094°43'.

Length 21 m; draft 3 m.

Type: . MMSI: 367556670.

Date/timePositionNaut miles runAvg speedWind from/ knotsBaromVisibWave heightAir tempDewpointWater temp
2018-Feb-23 18:45N 29°26' W 094°43'0 0.0
2018-Feb-23 18:29N 29°26' W 094°43'0 0.0
2018-Feb-23 08:54N 29°26' W 094°43'0 0.0
2018-Feb-23 03:43N 29°26' W 094°43'19 2.9
2018-Feb-22 21:14N 29°36' W 094°25'1 4.9
2018-Feb-22 20:56N 29°36' W 094°23'2 3.8
2018-Feb-22 20:30N 29°37' W 094°21'0 0.0
2018-Feb-22 20:00N 29°37' W 094°21'0 0.0
2018-Feb-22 19:31N 29°37' W 094°21'0 0.0
2018-Feb-22 19:00N 29°37' W 094°21'1 2.4
2018-Feb-22 18:30N 29°37' W 094°20'2 4.3
2018-Feb-22 17:59N 29°38' W 094°18'3 5.3
2018-Feb-22 17:30N 29°39' W 094°15'3 5.5
2018-Feb-22 17:00N 29°41' W 094°12'3 5.4
2018-Feb-22 16:31N 29°41' W 094°10'3 5.5
2018-Feb-22 16:01N 29°43' W 094°07'3 5.4
2018-Feb-22 15:31N 29°45' W 094°05'3 5.8
2018-Feb-22 15:00N 29°47' W 094°02'3 5.6
2018-Feb-22 14:30N 29°49' W 093°60'2 4.8
2018-Feb-22 14:01N 29°50' W 093°57'3 5.7
2018-Feb-22 13:31N 29°52' W 093°56'3 6.6
2018-Feb-22 13:00N 29°55' W 093°53'3 6.5
2018-Feb-22 12:30N 29°58' W 093°51'2 4.9
2018-Feb-22 12:00N 29°59' W 093°54'3 6.3
2018-Feb-22 11:31N 29°60' W 093°57'2 4.8
2018-Feb-22 11:01N 30°01' W 093°60'2 4.8
2018-Feb-22 10:31N 30°02' W 094°02'0 0.9
2018-Feb-22 10:01N 30°03' W 094°02'0 0.2
2018-Feb-22 09:31N 30°03' W 094°02'0 0.2
2018-Feb-22 09:00N 30°03' W 094°02'0 0.0
2018-Feb-22 08:31N 30°03' W 094°02'0 0.0
2018-Feb-22 08:01N 30°03' W 094°02'0 0.0
2018-Feb-22 07:30N 30°03' W 094°02'0 0.0
2018-Feb-22 07:01N 30°03' W 094°02'0 0.0
2018-Feb-22 06:30N 30°03' W 094°02'0 0.0
2018-Feb-22 06:00N 30°03' W 094°02'0 0.0
2018-Feb-22 05:30N 30°03' W 094°02'0 0.0
2018-Feb-22 05:01N 30°03' W 094°02'0 0.0
2018-Feb-22 04:31N 30°03' W 094°02'0 0.0
2018-Feb-22 04:01N 30°03' W 094°02'0 0.0
2018-Feb-22 03:31N 30°03' W 094°02'0 0.0
2018-Feb-22 03:01N 30°03' W 094°02'0 0.0
2018-Feb-22 02:30N 30°03' W 094°02'0 0.0
2018-Feb-22 02:01N 30°03' W 094°02'0 0.0
2018-Feb-22 01:31N 30°03' W 094°02'0 0.0
2018-Feb-22 01:01N 30°03' W 094°02'0 0.0
2018-Feb-22 00:31N 30°03' W 094°02'0 0.0
2018-Feb-22 00:00N 30°03' W 094°02'0 0.0
2018-Feb-21 23:30N 30°03' W 094°02'0 0.0
2018-Feb-21 23:00N 30°03' W 094°02'0 0.0
2018-Feb-21 22:31N 30°03' W 094°02'0 0.0
2018-Feb-21 22:01N 30°03' W 094°02'0 0.0
2018-Feb-21 21:30N 30°03' W 094°02'0 0.0
2018-Feb-21 21:01N 30°03' W 094°02'0 0.0
2018-Feb-21 20:31N 30°03' W 094°02'0 0.0
2018-Feb-21 20:01N 30°03' W 094°02'0 0.0
2018-Feb-21 19:31N 30°03' W 094°02'0 0.0
2018-Feb-21 19:00N 30°03' W 094°02'0 0.0
2018-Feb-21 18:30N 30°03' W 094°02'0 0.0
2018-Feb-21 18:01N 30°03' W 094°02'0 0.1
2018-Feb-21 17:29N 30°03' W 094°02'0 0.0
2018-Feb-21 17:00N 30°03' W 094°02'0 0.0
2018-Feb-21 16:30N 30°03' W 094°02'0 0.0
2018-Feb-21 16:00N 30°03' W 094°02'2 3.5
2018-Feb-21 15:31N 30°04' W 094°03'1 2.6
2018-Feb-21 15:00N 30°03' W 094°02'1 1.4
2018-Feb-21 14:31N 30°03' W 094°02'0 0.0
2018-Feb-21 14:00N 30°03' W 094°02'0 0.0
2018-Feb-21 13:31N 30°03' W 094°02'0 0.0
2018-Feb-21 13:00N 30°03' W 094°02'0 0.0
2018-Feb-21 12:31N 30°03' W 094°02'0 0.0
2018-Feb-21 12:01N 30°03' W 094°02'0 0.0
2018-Feb-21 11:30N 30°03' W 094°02'0 0.0
2018-Feb-21 11:01N 30°03' W 094°02'0 0.0
2018-Feb-21 10:31N 30°03' W 094°02'0 0.0
2018-Feb-21 10:01N 30°03' W 094°02'0 0.0
2018-Feb-21 09:31N 30°03' W 094°02'0 0.0
2018-Feb-21 09:01N 30°03' W 094°02'0 0.0
2018-Feb-21 08:31N 30°03' W 094°02'0 0.0
2018-Feb-21 08:01N 30°03' W 094°02'0 0.0
2018-Feb-21 07:31N 30°03' W 094°02'0 0.0
2018-Feb-21 07:00N 30°03' W 094°02'0 0.0
2018-Feb-21 06:30N 30°03' W 094°02'0 0.0
2018-Feb-21 06:01N 30°03' W 094°02'0 0.0
2018-Feb-21 05:31N 30°03' W 094°02'0 0.0
2018-Feb-21 05:01N 30°03' W 094°02'0 0.0
2018-Feb-21 04:30N 30°03' W 094°02'0 0.0
2018-Feb-21 04:00N 30°03' W 094°02'0 0.0
2018-Feb-21 03:31N 30°03' W 094°02'0 0.0
2018-Feb-21 03:00N 30°03' W 094°02'0 0.0
2018-Feb-21 02:31N 30°03' W 094°02'0 0.0
2018-Feb-21 02:00N 30°03' W 094°02'0 0.0
2018-Feb-21 01:30N 30°03' W 094°02'0 0.0
2018-Feb-21 01:01N 30°03' W 094°02'0 0.0
2018-Feb-21 00:31N 30°03' W 094°02'0 0.0
2018-Feb-21 00:01N 30°03' W 094°02'0 0.0
2018-Feb-20 23:31N 30°03' W 094°02'0 0.0
2018-Feb-20 23:01N 30°03' W 094°02'0 1.0
2018-Feb-20 22:31N 30°02' W 094°02'3 5.2
2018-Feb-20 22:00N 30°01' W 093°59'2 4.4
2018-Feb-20 21:31N 29°60' W 093°57'3 5.5
2018-Feb-20 21:01N 29°59' W 093°54'3 5.0
2018-Feb-20 20:30N 29°58' W 093°51'3 5.9
2018-Feb-20 20:01N 29°55' W 093°53'3 5.5
2018-Feb-20 19:31N 29°53' W 093°55'3 5.2
2018-Feb-20 19:00N 29°51' W 093°57'2 3.4
2018-Feb-20 18:31N 29°50' W 093°57'2 3.7
2018-Feb-20 18:00N 29°49' W 093°59'1 1.8
2018-Feb-20 17:31N 29°50' W 093°59'1 1.5
2018-Feb-20 17:01N 29°51' W 093°59'1 1.9
2018-Feb-20 16:30N 29°52' W 093°59'2 3.3
2018-Feb-20 16:01N 29°50' W 093°59'1 2.9
2018-Feb-20 15:31N 29°51' W 093°59'0 0.9
2018-Feb-20 15:00N 29°52' W 093°59'0 0.0
2018-Feb-20 14:31N 29°52' W 093°59'0 0.0
2018-Feb-20 14:00N 29°52' W 093°59'0 0.0
2018-Feb-20 13:30N 29°52' W 093°59'0 0.0
2018-Feb-20 13:00N 29°52' W 093°59'0 0.0
2018-Feb-20 12:31N 29°52' W 093°59'0 0.0
2018-Feb-20 12:00N 29°52' W 093°59'0 0.0
2018-Feb-20 11:30N 29°52' W 093°59'0 0.0
2018-Feb-20 11:00N 29°52' W 093°59'0 0.0
2018-Feb-20 10:30N 29°52' W 093°59'0 0.0
2018-Feb-20 10:00N 29°52' W 093°59'0 0.0
2018-Feb-20 09:31N 29°52' W 093°59'0 0.0
2018-Feb-20 09:01N 29°52' W 093°59'0 0.0
2018-Feb-20 08:30N 29°52' W 093°59'0 0.0
2018-Feb-20 08:01N 29°52' W 093°59'0 0.0
2018-Feb-20 07:30N 29°52' W 093°59'0 0.0
2018-Feb-20 07:00N 29°52' W 093°59'0 0.0
2018-Feb-20 06:30N 29°52' W 093°59'0 0.0
2018-Feb-20 06:01N 29°52' W 093°59'0 0.0
2018-Feb-20 05:31N 29°52' W 093°59'0 0.0
2018-Feb-20 05:01N 29°52' W 093°59'0 0.0
2018-Feb-20 04:30N 29°52' W 093°59'0 0.1
2018-Feb-20 04:01N 29°52' W 093°60'0 0.0
2018-Feb-20 03:31N 29°52' W 093°60'0 0.0
2018-Feb-20 03:00N 29°52' W 093°60'0 0.0
2018-Feb-20 02:31N 29°52' W 093°60'0 0.1
2018-Feb-20 01:59N 29°52' W 093°59'1 1.8
2018-Feb-20 01:31N 29°51' W 093°59'1 1.9
2018-Feb-20 01:00N 29°50' W 093°59'1 2.5
2018-Feb-20 00:30N 29°51' W 093°59'1 1.2
2018-Feb-20 00:01N 29°52' W 093°59'1 2.8
2018-Feb-19 23:31N 29°50' W 093°59'1 1.4
2018-Feb-19 23:01N 29°50' W 093°59'1 1.4
2018-Feb-19 22:30N 29°49' W 093°59'2 4.1
2018-Feb-19 22:00N 29°51' W 093°57'3 6.1
2018-Feb-19 21:30N 29°53' W 093°55'3 6.3
2018-Feb-19 21:00N 29°56' W 093°53'3 5.9
2018-Feb-19 20:31N 29°58' W 093°51'2 4.6
2018-Feb-19 20:00N 29°59' W 093°49'3 5.0
2018-Feb-19 19:30N 30°00' W 093°46'3 4.9
2018-Feb-19 18:59N 30°02' W 093°44'2 4.3
2018-Feb-19 18:29N 30°03' W 093°42'1 2.5
2018-Feb-19 18:01N 30°04' W 093°41'2 4.4
2018-Feb-19 17:28N 30°04' W 093°38'2 4.8
2018-Feb-19 16:58N 30°04' W 093°35'2 4.6
2018-Feb-19 16:30N 30°04' W 093°33'2 4.4
2018-Feb-19 16:00N 30°04' W 093°30'2 4.6
2018-Feb-19 15:30N 30°04' W 093°28'2 4.1
2018-Feb-19 15:01N 30°04' W 093°25'2 4.1
2018-Feb-19 14:26N 30°04' W 093°23'2 4.3
2018-Feb-19 13:55N 30°04' W 093°20'1 3.5
2018-Feb-19 13:31N 30°06' W 093°20'1 2.3
2018-Feb-19 13:00N 30°07' W 093°20'2 3.1
2018-Feb-19 12:31N 30°08' W 093°20'0 0.0
2018-Feb-19 12:01N 30°08' W 093°20'0 0.0
2018-Feb-19 11:31N 30°08' W 093°20'0 0.0
2018-Feb-19 11:00N 30°08' W 093°20'0 0.0
2018-Feb-19 10:31N 30°08' W 093°20'0 0.0
2018-Feb-19 10:01N 30°08' W 093°20'0 0.0
2018-Feb-19 09:28N 30°08' W 093°20'0 0.0
2018-Feb-19 09:01N 30°08' W 093°20'0 0.0
2018-Feb-19 08:30N 30°08' W 093°20'0 0.0
2018-Feb-19 08:00N 30°08' W 093°20'0 0.0
2018-Feb-19 07:30N 30°08' W 093°20'0 0.1
2018-Feb-19 07:01N 30°08' W 093°20'0 0.0
2018-Feb-19 06:30N 30°08' W 093°20'0 0.0
2018-Feb-19 06:00N 30°08' W 093°20'0 0.0
2018-Feb-19 05:31N 30°08' W 093°20'0 0.0
2018-Feb-19 05:00N 30°08' W 093°20'0 0.0
2018-Feb-19 04:30N 30°08' W 093°20'0 0.0
2018-Feb-19 04:00N 30°08' W 093°20'0 0.1
2018-Feb-19 03:31N 30°08' W 093°20'0 0.1
2018-Feb-19 03:01N 30°08' W 093°20'0 0.0
2018-Feb-19 02:31N 30°08' W 093°20'0 0.1
2018-Feb-19 02:01N 30°08' W 093°20'0 0.0
2018-Feb-19 01:31N 30°08' W 093°20'1 2.3
2018-Feb-19 01:01N 30°10' W 093°19'2 3.6
2018-Feb-19 00:31N 30°11' W 093°18'0 0.3
2018-Feb-19 00:00N 30°11' W 093°19'0 0.0
2018-Feb-18 23:31N 30°11' W 093°19'0 0.0
2018-Feb-18 23:01N 30°11' W 093°19'0 0.0
2018-Feb-18 22:30N 30°11' W 093°19'0 0.0
2018-Feb-18 22:00N 30°11' W 093°19'0 0.0
2018-Feb-18 21:30N 30°11' W 093°19'0 0.0
2018-Feb-18 20:56N 30°11' W 093°19'0 0.0
2018-Feb-18 20:29N 30°11' W 093°19'0 0.0
2018-Feb-18 19:59N 30°11' W 093°19'0 0.0
2018-Feb-18 19:29N 30°11' W 093°19'0 0.0
2018-Feb-18 18:59N 30°11' W 093°19'0 0.0
2018-Feb-18 18:29N 30°11' W 093°19'0 0.0
2018-Feb-18 17:59N 30°11' W 093°19'0 0.0
2018-Feb-18 17:29N 30°11' W 093°19'0 0.0
2018-Feb-18 16:59N 30°11' W 093°19'0 0.0
2018-Feb-18 16:29N 30°11' W 093°19'0 0.0
2018-Feb-18 15:59N 30°11' W 093°19'0 0.0
2018-Feb-18 15:29N 30°11' W 093°19'0 0.0
2018-Feb-18 14:59N 30°11' W 093°19'0 0.0
2018-Feb-18 14:29N 30°11' W 093°19'0 0.0
2018-Feb-18 13:59N 30°11' W 093°19'0 0.0
2018-Feb-18 13:29N 30°11' W 093°19'0 0.0
2018-Feb-18 12:59N 30°11' W 093°19'0 0.0
2018-Feb-18 12:29N 30°11' W 093°19'0 0.0
2018-Feb-18 11:59N 30°11' W 093°19'0 0.0
2018-Feb-18 11:29N 30°11' W 093°19'0 0.0
2018-Feb-18 10:59N 30°11' W 093°19'0 0.0
2018-Feb-18 10:29N 30°11' W 093°19'0 0.0
2018-Feb-18 09:59N 30°11' W 093°19'0 0.0
2018-Feb-18 09:29N 30°11' W 093°19'0 0.0
2018-Feb-18 08:59N 30°11' W 093°19'0 0.0
2018-Feb-18 08:26N 30°11' W 093°19'0 0.0
2018-Feb-18 07:59N 30°11' W 093°19'0 0.0
2018-Feb-18 07:29N 30°11' W 093°19'0 0.0
2018-Feb-18 06:59N 30°11' W 093°19'0 0.0
2018-Feb-18 06:29N 30°11' W 093°19'0 0.0
2018-Feb-18 05:59N 30°11' W 093°19'0 0.0
2018-Feb-18 05:29N 30°11' W 093°19'0 0.0
2018-Feb-18 04:59N 30°11' W 093°19'0 0.0
2018-Feb-18 04:29N 30°11' W 093°19'0 0.0
2018-Feb-18 03:59N 30°11' W 093°19'0 0.0
2018-Feb-18 03:29N 30°11' W 093°19'0 0.0
2018-Feb-18 02:59N 30°11' W 093°19'0 0.0
2018-Feb-18 02:29N 30°11' W 093°19'0 0.0
2018-Feb-18 01:59N 30°11' W 093°19'0 0.0
2018-Feb-18 01:29N 30°11' W 093°19'0 0.0
2018-Feb-18 00:59N 30°11' W 093°19'0 0.0
2018-Feb-18 00:29N 30°11' W 093°19'0 0.0
2018-Feb-17 23:59N 30°11' W 093°19'0 0.0
2018-Feb-17 23:29N 30°11' W 093°19'0 0.0
2018-Feb-17 22:59N 30°11' W 093°19'0 0.0
2018-Feb-17 22:29N 30°11' W 093°19'0 0.1
2018-Feb-17 21:59N 30°11' W 093°19'0 0.0
2018-Feb-17 21:29N 30°11' W 093°19'1 2.4
2018-Feb-17 21:01N 30°10' W 093°19'2 4.9
2018-Feb-17 20:31N 30°08' W 093°20'2 4.5
2018-Feb-17 19:59N 30°05' W 093°20'2 3.8
2018-Feb-17 19:30N 30°04' W 093°21'1 1.7
2018-Feb-17 19:01N 30°04' W 093°22'0 0.1
2018-Feb-17 18:29N 30°04' W 093°22'0 0.0
2018-Feb-17 17:59N 30°04' W 093°22'0 0.0
2018-Feb-17 17:29N 30°04' W 093°22'0 0.0
2018-Feb-17 16:59N 30°04' W 093°22'0 0.0
2018-Feb-17 16:29N 30°04' W 093°22'0 0.0
2018-Feb-17 15:59N 30°04' W 093°22'0 0.0
2018-Feb-17 15:29N 30°04' W 093°22'0 0.0
2018-Feb-17 14:59N 30°04' W 093°22'0 0.0
2018-Feb-17 14:29N 30°04' W 093°22'0 0.0
2018-Feb-17 13:59N 30°04' W 093°22'0 0.0
2018-Feb-17 13:29N 30°04' W 093°22'0 0.0
2018-Feb-17 12:59N 30°04' W 093°22'0 0.0
2018-Feb-17 12:29N 30°04' W 093°22'0 0.0
2018-Feb-17 11:59N 30°04' W 093°22'0 0.0
2018-Feb-17 11:29N 30°04' W 093°22'0 0.0
2018-Feb-17 10:59N 30°04' W 093°22'0 0.0
2018-Feb-17 10:29N 30°04' W 093°22'0 0.0
2018-Feb-17 09:59N 30°04' W 093°22'0 0.0
2018-Feb-17 09:29N 30°04' W 093°22'0 0.0
2018-Feb-17 08:59N 30°04' W 093°22'0 0.0
2018-Feb-17 08:29N 30°04' W 093°22'0 0.0
2018-Feb-17 07:59N 30°04' W 093°22'0 0.0
2018-Feb-17 07:29N 30°04' W 093°22'0 0.0
2018-Feb-17 06:59N 30°04' W 093°22'0 0.0
2018-Feb-17 06:29N 30°04' W 093°22'0 0.0
2018-Feb-17 05:59N 30°04' W 093°22'0 0.0
2018-Feb-17 05:29N 30°04' W 093°22'0 0.0
2018-Feb-17 04:59N 30°04' W 093°22'0 0.0
2018-Feb-17 04:29N 30°04' W 093°22'0 0.0
2018-Feb-17 03:59N 30°04' W 093°22'0 0.0
2018-Feb-17 03:29N 30°04' W 093°22'0 0.0
2018-Feb-17 02:59N 30°04' W 093°22'0 0.0
2018-Feb-17 02:29N 30°04' W 093°22'0 0.0
2018-Feb-17 01:59N 30°04' W 093°22'0 0.0
2018-Feb-17 01:26N 30°04' W 093°22'0 0.0
2018-Feb-17 00:53N 30°04' W 093°22'0 0.0
2018-Feb-17 00:29N 30°04' W 093°22'0 0.0
2018-Feb-16 23:50N 30°04' W 093°22'0 0.0
2018-Feb-16 23:17N 30°04' W 093°22'0 0.0
2018-Feb-16 22:59N 30°04' W 093°22'0 0.0
2018-Feb-16 22:29N 30°04' W 093°22'0 0.0
2018-Feb-16 21:59N 30°04' W 093°22'0 0.0
2018-Feb-16 21:29N 30°04' W 093°22'0 0.3
2018-Feb-16 21:00N 30°04' W 093°22'0 0.2
2018-Feb-16 20:28N 30°04' W 093°22'0 0.6
2018-Feb-16 20:01N 30°04' W 093°21'0 0.8
2018-Feb-16 19:30N 30°04' W 093°22'0 0.2
2018-Feb-16 18:58N 30°04' W 093°22'0 0.0
2018-Feb-16 18:28N 30°04' W 093°22'0 0.0
2018-Feb-16 17:58N 30°04' W 093°22'0 0.0
2018-Feb-16 17:28N 30°04' W 093°22'0 0.0
2018-Feb-16 16:58N 30°04' W 093°22'0 0.0
2018-Feb-16 16:25N 30°04' W 093°22'0 0.0
2018-Feb-16 15:58N 30°04' W 093°22'0 0.0
2018-Feb-16 15:28N 30°04' W 093°22'0 0.0
2018-Feb-16 14:58N 30°04' W 093°22'0 0.7
2018-Feb-16 14:30N 30°04' W 093°21'0 0.7
2018-Feb-16 14:00N 30°04' W 093°22'0 0.1
2018-Feb-16 13:29N 30°04' W 093°22'0 0.0
2018-Feb-16 12:59N 30°04' W 093°22'0 0.0
2018-Feb-16 12:29N 30°04' W 093°22'0 0.0
2018-Feb-16 11:59N 30°04' W 093°22'0 0.0
2018-Feb-16 11:29N 30°04' W 093°22'0 0.0
2018-Feb-16 10:59N 30°04' W 093°22'0 0.0
2018-Feb-16 10:26N 30°04' W 093°22'0 0.0
2018-Feb-16 09:59N 30°04' W 093°22'0 0.0
2018-Feb-16 09:29N 30°04' W 093°22'0 0.0
2018-Feb-16 08:59N 30°04' W 093°22'0 0.0
2018-Feb-16 08:29N 30°04' W 093°22'0 0.0
2018-Feb-16 07:59N 30°04' W 093°22'0 0.0
2018-Feb-16 07:29N 30°04' W 093°22'0 0.0
2018-Feb-16 06:59N 30°04' W 093°22'0 0.0
2018-Feb-16 06:29N 30°04' W 093°22'0 0.0
2018-Feb-16 05:59N 30°04' W 093°22'0 0.0
2018-Feb-16 05:29N 30°04' W 093°22'0 0.0
2018-Feb-16 04:53N 30°04' W 093°22'0 0.0
2018-Feb-16 04:29N 30°04' W 093°22'0 0.0
2018-Feb-16 03:59N 30°04' W 093°22'0 0.0
2018-Feb-16 03:29N 30°04' W 093°22'0 0.0
2018-Feb-16 02:59N 30°04' W 093°22'0 0.0
2018-Feb-16 02:29N 30°04' W 093°22'0 0.0
2018-Feb-16 01:59N 30°04' W 093°22'0 0.0
2018-Feb-16 01:29N 30°04' W 093°22'0 0.0
2018-Feb-16 00:59N 30°04' W 093°22'0 0.0
2018-Feb-16 00:23N 30°04' W 093°22'0 0.0
2018-Feb-15 23:56N 30°04' W 093°22'0 0.0
2018-Feb-15 23:29N 30°04' W 093°22'0 0.0
2018-Feb-15 22:56N 30°04' W 093°22'0 0.0
2018-Feb-15 22:29N 30°04' W 093°22'0 0.0
2018-Feb-15 21:59N 30°04' W 093°22'0 0.0
2018-Feb-15 21:29N 30°04' W 093°22'0 0.0
2018-Feb-15 20:59N 30°04' W 093°22'0 0.0
2018-Feb-15 20:30N 30°04' W 093°22'0 0.9
2018-Feb-15 20:00N 30°04' W 093°21'0 0.0
2018-Feb-15 19:30N 30°04' W 093°21'0 0.0
2018-Feb-15 19:00N 30°04' W 093°21'0 0.0
2018-Feb-15 18:30N 30°04' W 093°21'0 0.0
2018-Feb-15 18:00N 30°04' W 093°21'0 0.0
2018-Feb-15 17:30N 30°04' W 093°21'0 0.8
2018-Feb-15 16:58N 30°04' W 093°22'0 0.0
2018-Feb-15 16:28N 30°04' W 093°22'0 0.0
2018-Feb-15 15:58N 30°04' W 093°22'0 0.0
2018-Feb-15 15:28N 30°04' W 093°22'0 0.0
2018-Feb-15 14:58N 30°04' W 093°22'0 0.0
2018-Feb-15 14:28N 30°04' W 093°22'0 0.0
2018-Feb-15 13:58N 30°04' W 093°22'0 0.0
2018-Feb-15 13:28N 30°04' W 093°22'0 0.0
2018-Feb-15 12:58N 30°04' W 093°22'0 0.0
2018-Feb-15 12:28N 30°04' W 093°22'0 0.0
2018-Feb-15 11:58N 30°04' W 093°22'0 0.0
2018-Feb-15 11:28N 30°04' W 093°22'0 0.0
2018-Feb-15 10:58N 30°04' W 093°22'0 0.0
2018-Feb-15 10:28N 30°04' W 093°22'0 0.0
2018-Feb-15 09:58N 30°04' W 093°22'0 0.0
2018-Feb-15 09:28N 30°04' W 093°22'0 0.0
2018-Feb-15 08:58N 30°04' W 093°22'0 0.0
2018-Feb-15 08:28N 30°04' W 093°22'0 0.0
2018-Feb-15 07:58N 30°04' W 093°22'0 0.0
2018-Feb-15 07:28N 30°04' W 093°22'0 0.0
2018-Feb-15 06:58N 30°04' W 093°22'0 0.0
2018-Feb-15 06:25N 30°04' W 093°22'0 0.0
2018-Feb-15 05:58N 30°04' W 093°22'0 0.0
2018-Feb-15 05:28N 30°04' W 093°22'0 0.0
2018-Feb-15 04:55N 30°04' W 093°22'0 0.0
2018-Feb-15 04:28N 30°04' W 093°22'0 0.0
2018-Feb-15 03:58N 30°04' W 093°22'0 0.0
2018-Feb-15 03:28N 30°04' W 093°22'0 0.0
2018-Feb-15 02:46N 30°04' W 093°22'0 0.0
2018-Feb-15 02:22N 30°04' W 093°22'0 0.0
2018-Feb-15 01:58N 30°04' W 093°22'0 0.0
2018-Feb-15 01:28N 30°04' W 093°22'0 0.0
2018-Feb-15 00:58N 30°04' W 093°22'0 0.0
2018-Feb-15 00:28N 30°04' W 093°22'0 0.0
2018-Feb-14 23:58N 30°04' W 093°22'0 0.2
2018-Feb-14 23:30N 30°04' W 093°22'2 3.8
2018-Feb-14 23:00N 30°05' W 093°20'3 6.4
2018-Feb-14 22:30N 30°08' W 093°20'0 0.8
2018-Feb-14 21:59N 30°08' W 093°19'0 0.1
2018-Feb-14 21:26N 30°08' W 093°19'0 0.0
2018-Feb-14 20:59N 30°08' W 093°19'0 0.0
2018-Feb-14 20:29N 30°08' W 093°19'0 0.0
2018-Feb-14 20:01N 30°08' W 093°19'2 4.7
2018-Feb-14 19:30N 30°06' W 093°20'3 5.7
2018-Feb-14 19:00N 30°04' W 093°22'0 0.4
2018-Feb-14 18:29N 30°04' W 093°22'0 0.0
2018-Feb-14 17:59N 30°04' W 093°22'0 0.0
2018-Feb-14 17:30N 30°04' W 093°22'0 0.0
2018-Feb-14 17:00N 30°04' W 093°22'0 0.0
2018-Feb-14 16:30N 30°04' W 093°22'0 0.0
2018-Feb-14 16:00N 30°04' W 093°22'0 0.0
2018-Feb-14 15:30N 30°04' W 093°22'0 0.0
2018-Feb-14 15:00N 30°04' W 093°22'0 0.0
2018-Feb-14 14:30N 30°04' W 093°22'0 0.9
2018-Feb-14 14:00N 30°04' W 093°21'0 0.9
2018-Feb-14 13:30N 30°04' W 093°22'0 0.0
2018-Feb-14 13:00N 30°04' W 093°22'0 0.0
2018-Feb-14 12:30N 30°04' W 093°22'0 0.0
2018-Feb-14 12:00N 30°04' W 093°22'0 0.0
2018-Feb-14 11:30N 30°04' W 093°22'0 0.0
2018-Feb-14 11:00N 30°04' W 093°22'0 0.0
2018-Feb-14 10:30N 30°04' W 093°22'0 0.0
2018-Feb-14 10:00N 30°04' W 093°22'0 0.0
2018-Feb-14 09:30N 30°04' W 093°22'0 0.0
2018-Feb-14 09:00N 30°04' W 093°22'0 0.0
2018-Feb-14 08:30N 30°04' W 093°22'0 0.0
2018-Feb-14 08:00N 30°04' W 093°22'0 0.0
2018-Feb-14 07:30N 30°04' W 093°22'0 0.0
2018-Feb-14 06:59N 30°04' W 093°22'0 0.0
2018-Feb-14 06:30N 30°04' W 093°22'0 0.0
2018-Feb-14 06:00N 30°04' W 093°22'0 0.0
2018-Feb-14 05:30N 30°04' W 093°22'0 0.0
2018-Feb-14 05:00N 30°04' W 093°22'0 0.0
2018-Feb-14 04:29N 30°04' W 093°22'0 0.0
2018-Feb-14 04:00N 30°04' W 093°22'0 0.0
2018-Feb-14 03:30N 30°04' W 093°22'0 0.0
2018-Feb-14 02:58N 30°04' W 093°22'0 0.0
2018-Feb-14 02:30N 30°04' W 093°22'0 0.0
2018-Feb-14 02:00N 30°04' W 093°22'0 0.0
2018-Feb-14 01:30N 30°04' W 093°22'0 0.1
2018-Feb-14 00:58N 30°04' W 093°22'0 0.0
2018-Feb-14 00:30N 30°04' W 093°22'0 0.0
2018-Feb-14 00:00N 30°04' W 093°22'1 1.8
2018-Feb-13 23:30N 30°04' W 093°23'3 5.3
2018-Feb-13 23:00N 30°04' W 093°26'3 6.2
2018-Feb-13 22:30N 30°04' W 093°29'3 6.3
2018-Feb-13 22:00N 30°04' W 093°33'3 4.9
2018-Feb-13 21:28N 30°04' W 093°36'4 6.6
2018-Feb-13 20:57N 30°04' W 093°40'3 6.0
2018-Feb-13 20:30N 30°03' W 093°43'3 6.1
2018-Feb-13 20:00N 30°01' W 093°45'3 6.2
2018-Feb-13 19:30N 29°59' W 093°48'3 6.6
2018-Feb-13 19:00N 29°57' W 093°52'  
Track history (hours):
 
Tides and Currents Weather Stations Pressure Air Temp Water Temp Dewpoint Dewpoint Depression Visibility Wind Speed Wind Dir Waves Ship Positions

Kenny Billiot

Owner: Wood Resources LLC, Avondale, LA. More information available from US FCC via Universal Licensing System and Coast Guard Vessel Documentation Center.

Last reported at 2018-Feb-23 18:45 UTC. Time now 2018-Feb-25 13:24 UTC.
Position N 29°26' W 094°43'.

Length 21 m; draft 3 m.

Type: . MMSI: 367556670.

Date/timePositionNaut miles runAvg speedWind from/ knotsBaromVisibWave heightAir tempDewpointWater temp
2018-Feb-23 18:45N 29°26' W 094°43'0 0.0
2018-Feb-23 18:29N 29°26' W 094°43'0 0.0
2018-Feb-23 08:54N 29°26' W 094°43'0 0.0
2018-Feb-23 03:43N 29°26' W 094°43'19 2.9
2018-Feb-22 21:14N 29°36' W 094°25'1 4.9
2018-Feb-22 20:56N 29°36' W 094°23'2 3.8
2018-Feb-22 20:30N 29°37' W 094°21'0 0.0
2018-Feb-22 20:00N 29°37' W 094°21'0 0.0
2018-Feb-22 19:31N 29°37' W 094°21'0 0.0
2018-Feb-22 19:00N 29°37' W 094°21'1 2.4
2018-Feb-22 18:30N 29°37' W 094°20'2 4.3
2018-Feb-22 17:59N 29°38' W 094°18'3 5.3
2018-Feb-22 17:30N 29°39' W 094°15'3 5.5
2018-Feb-22 17:00N 29°41' W 094°12'3 5.4
2018-Feb-22 16:31N 29°41' W 094°10'3 5.5
2018-Feb-22 16:01N 29°43' W 094°07'3 5.4
2018-Feb-22 15:31N 29°45' W 094°05'3 5.8
2018-Feb-22 15:00N 29°47' W 094°02'3 5.6
2018-Feb-22 14:30N 29°49' W 093°60'2 4.8
2018-Feb-22 14:01N 29°50' W 093°57'3 5.7
2018-Feb-22 13:31N 29°52' W 093°56'3 6.6
2018-Feb-22 13:00N 29°55' W 093°53'3 6.5
2018-Feb-22 12:30N 29°58' W 093°51'2 4.9
2018-Feb-22 12:00N 29°59' W 093°54'3 6.3
2018-Feb-22 11:31N 29°60' W 093°57'2 4.8
2018-Feb-22 11:01N 30°01' W 093°60'2 4.8
2018-Feb-22 10:31N 30°02' W 094°02'0 0.9
2018-Feb-22 10:01N 30°03' W 094°02'0 0.2
2018-Feb-22 09:31N 30°03' W 094°02'0 0.2
2018-Feb-22 09:00N 30°03' W 094°02'0 0.0
2018-Feb-22 08:31N 30°03' W 094°02'0 0.0
2018-Feb-22 08:01N 30°03' W 094°02'0 0.0
2018-Feb-22 07:30N 30°03' W 094°02'0 0.0
2018-Feb-22 07:01N 30°03' W 094°02'0 0.0
2018-Feb-22 06:30N 30°03' W 094°02'0 0.0
2018-Feb-22 06:00N 30°03' W 094°02'0 0.0
2018-Feb-22 05:30N 30°03' W 094°02'0 0.0
2018-Feb-22 05:01N 30°03' W 094°02'0 0.0
2018-Feb-22 04:31N 30°03' W 094°02'0 0.0
2018-Feb-22 04:01N 30°03' W 094°02'0 0.0
2018-Feb-22 03:31N 30°03' W 094°02'0 0.0
2018-Feb-22 03:01N 30°03' W 094°02'0 0.0
2018-Feb-22 02:30N 30°03' W 094°02'0 0.0
2018-Feb-22 02:01N 30°03' W 094°02'0 0.0
2018-Feb-22 01:31N 30°03' W 094°02'0 0.0
2018-Feb-22 01:01N 30°03' W 094°02'0 0.0
2018-Feb-22 00:31N 30°03' W 094°02'0 0.0
2018-Feb-22 00:00N 30°03' W 094°02'0 0.0
2018-Feb-21 23:30N 30°03' W 094°02'0 0.0
2018-Feb-21 23:00N 30°03' W 094°02'0 0.0
2018-Feb-21 22:31N 30°03' W 094°02'0 0.0
2018-Feb-21 22:01N 30°03' W 094°02'0 0.0
2018-Feb-21 21:30N 30°03' W 094°02'0 0.0
2018-Feb-21 21:01N 30°03' W 094°02'0 0.0
2018-Feb-21 20:31N 30°03' W 094°02'0 0.0
2018-Feb-21 20:01N 30°03' W 094°02'0 0.0
2018-Feb-21 19:31N 30°03' W 094°02'0 0.0
2018-Feb-21 19:00N 30°03' W 094°02'0 0.0
2018-Feb-21 18:30N 30°03' W 094°02'0 0.0
2018-Feb-21 18:01N 30°03' W 094°02'0 0.1
2018-Feb-21 17:29N 30°03' W 094°02'0 0.0
2018-Feb-21 17:00N 30°03' W 094°02'0 0.0
2018-Feb-21 16:30N 30°03' W 094°02'0 0.0
2018-Feb-21 16:00N 30°03' W 094°02'2 3.5
2018-Feb-21 15:31N 30°04' W 094°03'1 2.6
2018-Feb-21 15:00N 30°03' W 094°02'1 1.4
2018-Feb-21 14:31N 30°03' W 094°02'0 0.0
2018-Feb-21 14:00N 30°03' W 094°02'0 0.0
2018-Feb-21 13:31N 30°03' W 094°02'0 0.0
2018-Feb-21 13:00N 30°03' W 094°02'0 0.0
2018-Feb-21 12:31N 30°03' W 094°02'0 0.0
2018-Feb-21 12:01N 30°03' W 094°02'0 0.0
2018-Feb-21 11:30N 30°03' W 094°02'0 0.0
2018-Feb-21 11:01N 30°03' W 094°02'0 0.0
2018-Feb-21 10:31N 30°03' W 094°02'0 0.0
2018-Feb-21 10:01N 30°03' W 094°02'0 0.0
2018-Feb-21 09:31N 30°03' W 094°02'0 0.0
2018-Feb-21 09:01N 30°03' W 094°02'0 0.0
2018-Feb-21 08:31N 30°03' W 094°02'0 0.0
2018-Feb-21 08:01N 30°03' W 094°02'0 0.0
2018-Feb-21 07:31N 30°03' W 094°02'0 0.0
2018-Feb-21 07:00N 30°03' W 094°02'0 0.0
2018-Feb-21 06:30N 30°03' W 094°02'0 0.0
2018-Feb-21 06:01N 30°03' W 094°02'0 0.0
2018-Feb-21 05:31N 30°03' W 094°02'0 0.0
2018-Feb-21 05:01N 30°03' W 094°02'0 0.0
2018-Feb-21 04:30N 30°03' W 094°02'0 0.0
2018-Feb-21 04:00N 30°03' W 094°02'0 0.0
2018-Feb-21 03:31N 30°03' W 094°02'0 0.0
2018-Feb-21 03:00N 30°03' W 094°02'0 0.0
2018-Feb-21 02:31N 30°03' W 094°02'0 0.0
2018-Feb-21 02:00N 30°03' W 094°02'0 0.0
2018-Feb-21 01:30N 30°03' W 094°02'0 0.0
2018-Feb-21 01:01N 30°03' W 094°02'0 0.0
2018-Feb-21 00:31N 30°03' W 094°02'0 0.0
2018-Feb-21 00:01N 30°03' W 094°02'0 0.0
2018-Feb-20 23:31N 30°03' W 094°02'0 0.0
2018-Feb-20 23:01N 30°03' W 094°02'0 1.0
2018-Feb-20 22:31N 30°02' W 094°02'3 5.2
2018-Feb-20 22:00N 30°01' W 093°59'2 4.4
2018-Feb-20 21:31N 29°60' W 093°57'3 5.5
2018-Feb-20 21:01N 29°59' W 093°54'3 5.0
2018-Feb-20 20:30N 29°58' W 093°51'3 5.9
2018-Feb-20 20:01N 29°55' W 093°53'3 5.5
2018-Feb-20 19:31N 29°53' W 093°55'3 5.2
2018-Feb-20 19:00N 29°51' W 093°57'2 3.4
2018-Feb-20 18:31N 29°50' W 093°57'2 3.7
2018-Feb-20 18:00N 29°49' W 093°59'1 1.8
2018-Feb-20 17:31N 29°50' W 093°59'1 1.5
2018-Feb-20 17:01N 29°51' W 093°59'1 1.9
2018-Feb-20 16:30N 29°52' W 093°59'2 3.3
2018-Feb-20 16:01N 29°50' W 093°59'1 2.9
2018-Feb-20 15:31N 29°51' W 093°59'0 0.9
2018-Feb-20 15:00N 29°52' W 093°59'0 0.0
2018-Feb-20 14:31N 29°52' W 093°59'0 0.0
2018-Feb-20 14:00N 29°52' W 093°59'0 0.0
2018-Feb-20 13:30N 29°52' W 093°59'0 0.0
2018-Feb-20 13:00N 29°52' W 093°59'0 0.0
2018-Feb-20 12:31N 29°52' W 093°59'0 0.0
2018-Feb-20 12:00N 29°52' W 093°59'0 0.0
2018-Feb-20 11:30N 29°52' W 093°59'0 0.0
2018-Feb-20 11:00N 29°52' W 093°59'0 0.0
2018-Feb-20 10:30N 29°52' W 093°59'0 0.0
2018-Feb-20 10:00N 29°52' W 093°59'0 0.0
2018-Feb-20 09:31N 29°52' W 093°59'0 0.0
2018-Feb-20 09:01N 29°52' W 093°59'0 0.0
2018-Feb-20 08:30N 29°52' W 093°59'0 0.0
2018-Feb-20 08:01N 29°52' W 093°59'0 0.0
2018-Feb-20 07:30N 29°52' W 093°59'0 0.0
2018-Feb-20 07:00N 29°52' W 093°59'0 0.0
2018-Feb-20 06:30N 29°52' W 093°59'0 0.0
2018-Feb-20 06:01N 29°52' W 093°59'0 0.0
2018-Feb-20 05:31N 29°52' W 093°59'0 0.0
2018-Feb-20 05:01N 29°52' W 093°59'0 0.0
2018-Feb-20 04:30N 29°52' W 093°59'0 0.1
2018-Feb-20 04:01N 29°52' W 093°60'0 0.0
2018-Feb-20 03:31N 29°52' W 093°60'0 0.0
2018-Feb-20 03:00N 29°52' W 093°60'0 0.0
2018-Feb-20 02:31N 29°52' W 093°60'0 0.1
2018-Feb-20 01:59N 29°52' W 093°59'1 1.8
2018-Feb-20 01:31N 29°51' W 093°59'1 1.9
2018-Feb-20 01:00N 29°50' W 093°59'1 2.5
2018-Feb-20 00:30N 29°51' W 093°59'1 1.2
2018-Feb-20 00:01N 29°52' W 093°59'1 2.8
2018-Feb-19 23:31N 29°50' W 093°59'1 1.4
2018-Feb-19 23:01N 29°50' W 093°59'1 1.4
2018-Feb-19 22:30N 29°49' W 093°59'2 4.1
2018-Feb-19 22:00N 29°51' W 093°57'3 6.1
2018-Feb-19 21:30N 29°53' W 093°55'3 6.3
2018-Feb-19 21:00N 29°56' W 093°53'3 5.9
2018-Feb-19 20:31N 29°58' W 093°51'2 4.6
2018-Feb-19 20:00N 29°59' W 093°49'3 5.0
2018-Feb-19 19:30N 30°00' W 093°46'3 4.9
2018-Feb-19 18:59N 30°02' W 093°44'2 4.3
2018-Feb-19 18:29N 30°03' W 093°42'1 2.5
2018-Feb-19 18:01N 30°04' W 093°41'2 4.4
2018-Feb-19 17:28N 30°04' W 093°38'2 4.8
2018-Feb-19 16:58N 30°04' W 093°35'2 4.6
2018-Feb-19 16:30N 30°04' W 093°33'2 4.4
2018-Feb-19 16:00N 30°04' W 093°30'2 4.6
2018-Feb-19 15:30N 30°04' W 093°28'2 4.1
2018-Feb-19 15:01N 30°04' W 093°25'2 4.1
2018-Feb-19 14:26N 30°04' W 093°23'2 4.3
2018-Feb-19 13:55N 30°04' W 093°20'1 3.5
2018-Feb-19 13:31N 30°06' W 093°20'1 2.3
2018-Feb-19 13:00N 30°07' W 093°20'2 3.1
2018-Feb-19 12:31N 30°08' W 093°20'0 0.0
2018-Feb-19 12:01N 30°08' W 093°20'0 0.0
2018-Feb-19 11:31N 30°08' W 093°20'0 0.0
2018-Feb-19 11:00N 30°08' W 093°20'0 0.0
2018-Feb-19 10:31N 30°08' W 093°20'0 0.0
2018-Feb-19 10:01N 30°08' W 093°20'0 0.0
2018-Feb-19 09:28N 30°08' W 093°20'0 0.0
2018-Feb-19 09:01N 30°08' W 093°20'0 0.0
2018-Feb-19 08:30N 30°08' W 093°20'0 0.0
2018-Feb-19 08:00N 30°08' W 093°20'0 0.0
2018-Feb-19 07:30N 30°08' W 093°20'0 0.1
2018-Feb-19 07:01N 30°08' W 093°20'0 0.0
2018-Feb-19 06:30N 30°08' W 093°20'0 0.0
2018-Feb-19 06:00N 30°08' W 093°20'0 0.0
2018-Feb-19 05:31N 30°08' W 093°20'0 0.0
2018-Feb-19 05:00N 30°08' W 093°20'0 0.0
2018-Feb-19 04:30N 30°08' W 093°20'0 0.0
2018-Feb-19 04:00N 30°08' W 093°20'0 0.1
2018-Feb-19 03:31N 30°08' W 093°20'0 0.1
2018-Feb-19 03:01N 30°08' W 093°20'0 0.0
2018-Feb-19 02:31N 30°08' W 093°20'0 0.1
2018-Feb-19 02:01N 30°08' W 093°20'0 0.0
2018-Feb-19 01:31N 30°08' W 093°20'1 2.3
2018-Feb-19 01:01N 30°10' W 093°19'2 3.6
2018-Feb-19 00:31N 30°11' W 093°18'0 0.3
2018-Feb-19 00:00N 30°11' W 093°19'0 0.0
2018-Feb-18 23:31N 30°11' W 093°19'0 0.0
2018-Feb-18 23:01N 30°11' W 093°19'0 0.0
2018-Feb-18 22:30N 30°11' W 093°19'0 0.0
2018-Feb-18 22:00N 30°11' W 093°19'0 0.0
2018-Feb-18 21:30N 30°11' W 093°19'0 0.0
2018-Feb-18 20:56N 30°11' W 093°19'0 0.0
2018-Feb-18 20:29N 30°11' W 093°19'0 0.0
2018-Feb-18 19:59N 30°11' W 093°19'0 0.0
2018-Feb-18 19:29N 30°11' W 093°19'0 0.0
2018-Feb-18 18:59N 30°11' W 093°19'0 0.0
2018-Feb-18 18:29N 30°11' W 093°19'0 0.0
2018-Feb-18 17:59N 30°11' W 093°19'0 0.0
2018-Feb-18 17:29N 30°11' W 093°19'0 0.0
2018-Feb-18 16:59N 30°11' W 093°19'0 0.0
2018-Feb-18 16:29N 30°11' W 093°19'0 0.0
2018-Feb-18 15:59N 30°11' W 093°19'0 0.0
2018-Feb-18 15:29N 30°11' W 093°19'0 0.0
2018-Feb-18 14:59N 30°11' W 093°19'0 0.0
2018-Feb-18 14:29N 30°11' W 093°19'0 0.0
2018-Feb-18 13:59N 30°11' W 093°19'0 0.0
2018-Feb-18 13:29N 30°11' W 093°19'0 0.0
2018-Feb-18 12:59N 30°11' W 093°19'0 0.0
2018-Feb-18 12:29N 30°11' W 093°19'0 0.0
2018-Feb-18 11:59N 30°11' W 093°19'0 0.0
2018-Feb-18 11:29N 30°11' W 093°19'0 0.0
2018-Feb-18 10:59N 30°11' W 093°19'0 0.0
2018-Feb-18 10:29N 30°11' W 093°19'0 0.0
2018-Feb-18 09:59N 30°11' W 093°19'0 0.0
2018-Feb-18 09:29N 30°11' W 093°19'0 0.0
2018-Feb-18 08:59N 30°11' W 093°19'0 0.0
2018-Feb-18 08:26N 30°11' W 093°19'0 0.0
2018-Feb-18 07:59N 30°11' W 093°19'0 0.0
2018-Feb-18 07:29N 30°11' W 093°19'0 0.0
2018-Feb-18 06:59N 30°11' W 093°19'0 0.0
2018-Feb-18 06:29N 30°11' W 093°19'0 0.0
2018-Feb-18 05:59N 30°11' W 093°19'0 0.0
2018-Feb-18 05:29N 30°11' W 093°19'0 0.0
2018-Feb-18 04:59N 30°11' W 093°19'0 0.0
2018-Feb-18 04:29N 30°11' W 093°19'0 0.0
2018-Feb-18 03:59N 30°11' W 093°19'0 0.0
2018-Feb-18 03:29N 30°11' W 093°19'0 0.0
2018-Feb-18 02:59N 30°11' W 093°19'0 0.0
2018-Feb-18 02:29N 30°11' W 093°19'0 0.0
2018-Feb-18 01:59N 30°11' W 093°19'0 0.0
2018-Feb-18 01:29N 30°11' W 093°19'0 0.0
2018-Feb-18 00:59N 30°11' W 093°19'0 0.0
2018-Feb-18 00:29N 30°11' W 093°19'0 0.0
2018-Feb-17 23:59N 30°11' W 093°19'0 0.0
2018-Feb-17 23:29N 30°11' W 093°19'0 0.0
2018-Feb-17 22:59N 30°11' W 093°19'0 0.0
2018-Feb-17 22:29N 30°11' W 093°19'0 0.1
2018-Feb-17 21:59N 30°11' W 093°19'0 0.0
2018-Feb-17 21:29N 30°11' W 093°19'1 2.4
2018-Feb-17 21:01N 30°10' W 093°19'2 4.9
2018-Feb-17 20:31N 30°08' W 093°20'2 4.5
2018-Feb-17 19:59N 30°05' W 093°20'2 3.8
2018-Feb-17 19:30N 30°04' W 093°21'1 1.7
2018-Feb-17 19:01N 30°04' W 093°22'0 0.1
2018-Feb-17 18:29N 30°04' W 093°22'0 0.0
2018-Feb-17 17:59N 30°04' W 093°22'0 0.0
2018-Feb-17 17:29N 30°04' W 093°22'0 0.0
2018-Feb-17 16:59N 30°04' W 093°22'0 0.0
2018-Feb-17 16:29N 30°04' W 093°22'0 0.0
2018-Feb-17 15:59N 30°04' W 093°22'0 0.0
2018-Feb-17 15:29N 30°04' W 093°22'0 0.0
2018-Feb-17 14:59N 30°04' W 093°22'0 0.0
2018-Feb-17 14:29N 30°04' W 093°22'0 0.0
2018-Feb-17 13:59N 30°04' W 093°22'0 0.0
2018-Feb-17 13:29N 30°04' W 093°22'0 0.0
2018-Feb-17 12:59N 30°04' W 093°22'0 0.0
2018-Feb-17 12:29N 30°04' W 093°22'0 0.0
2018-Feb-17 11:59N 30°04' W 093°22'0 0.0
2018-Feb-17 11:29N 30°04' W 093°22'0 0.0
2018-Feb-17 10:59N 30°04' W 093°22'0 0.0
2018-Feb-17 10:29N 30°04' W 093°22'0 0.0
2018-Feb-17 09:59N 30°04' W 093°22'0 0.0
2018-Feb-17 09:29N 30°04' W 093°22'0 0.0
2018-Feb-17 08:59N 30°04' W 093°22'0 0.0
2018-Feb-17 08:29N 30°04' W 093°22'0 0.0
2018-Feb-17 07:59N 30°04' W 093°22'0 0.0
2018-Feb-17 07:29N 30°04' W 093°22'0 0.0
2018-Feb-17 06:59N 30°04' W 093°22'0 0.0
2018-Feb-17 06:29N 30°04' W 093°22'0 0.0
2018-Feb-17 05:59N 30°04' W 093°22'0 0.0
2018-Feb-17 05:29N 30°04' W 093°22'0 0.0
2018-Feb-17 04:59N 30°04' W 093°22'0 0.0
2018-Feb-17 04:29N 30°04' W 093°22'0 0.0
2018-Feb-17 03:59N 30°04' W 093°22'0 0.0
2018-Feb-17 03:29N 30°04' W 093°22'0 0.0
2018-Feb-17 02:59N 30°04' W 093°22'0 0.0
2018-Feb-17 02:29N 30°04' W 093°22'0 0.0
2018-Feb-17 01:59N 30°04' W 093°22'0 0.0
2018-Feb-17 01:26N 30°04' W 093°22'0 0.0
2018-Feb-17 00:53N 30°04' W 093°22'0 0.0
2018-Feb-17 00:29N 30°04' W 093°22'0 0.0
2018-Feb-16 23:50N 30°04' W 093°22'0 0.0
2018-Feb-16 23:17N 30°04' W 093°22'0 0.0
2018-Feb-16 22:59N 30°04' W 093°22'0 0.0
2018-Feb-16 22:29N 30°04' W 093°22'0 0.0
2018-Feb-16 21:59N 30°04' W 093°22'0 0.0
2018-Feb-16 21:29N 30°04' W 093°22'0 0.3
2018-Feb-16 21:00N 30°04' W 093°22'0 0.2
2018-Feb-16 20:28N 30°04' W 093°22'0 0.6
2018-Feb-16 20:01N 30°04' W 093°21'0 0.8
2018-Feb-16 19:30N 30°04' W 093°22'0 0.2
2018-Feb-16 18:58N 30°04' W 093°22'0 0.0
2018-Feb-16 18:28N 30°04' W 093°22'0 0.0
2018-Feb-16 17:58N 30°04' W 093°22'0 0.0
2018-Feb-16 17:28N 30°04' W 093°22'0 0.0
2018-Feb-16 16:58N 30°04' W 093°22'0 0.0
2018-Feb-16 16:25N 30°04' W 093°22'0 0.0
2018-Feb-16 15:58N 30°04' W 093°22'0 0.0
2018-Feb-16 15:28N 30°04' W 093°22'0 0.0
2018-Feb-16 14:58N 30°04' W 093°22'0 0.7
2018-Feb-16 14:30N 30°04' W 093°21'0 0.7
2018-Feb-16 14:00N 30°04' W 093°22'0 0.1
2018-Feb-16 13:29N 30°04' W 093°22'0 0.0
2018-Feb-16 12:59N 30°04' W 093°22'0 0.0
2018-Feb-16 12:29N 30°04' W 093°22'0 0.0
2018-Feb-16 11:59N 30°04' W 093°22'0 0.0
2018-Feb-16 11:29N 30°04' W 093°22'0 0.0
2018-Feb-16 10:59N 30°04' W 093°22'0 0.0
2018-Feb-16 10:26N 30°04' W 093°22'0 0.0
2018-Feb-16 09:59N 30°04' W 093°22'0 0.0
2018-Feb-16 09:29N 30°04' W 093°22'0 0.0
2018-Feb-16 08:59N 30°04' W 093°22'0 0.0
2018-Feb-16 08:29N 30°04' W 093°22'0 0.0
2018-Feb-16 07:59N 30°04' W 093°22'0 0.0
2018-Feb-16 07:29N 30°04' W 093°22'0 0.0
2018-Feb-16 06:59N 30°04' W 093°22'0 0.0
2018-Feb-16 06:29N 30°04' W 093°22'0 0.0
2018-Feb-16 05:59N 30°04' W 093°22'0 0.0
2018-Feb-16 05:29N 30°04' W 093°22'0 0.0
2018-Feb-16 04:53N 30°04' W 093°22'0 0.0
2018-Feb-16 04:29N 30°04' W 093°22'0 0.0
2018-Feb-16 03:59N 30°04' W 093°22'0 0.0
2018-Feb-16 03:29N 30°04' W 093°22'0 0.0
2018-Feb-16 02:59N 30°04' W 093°22'0 0.0
2018-Feb-16 02:29N 30°04' W 093°22'0 0.0
2018-Feb-16 01:59N 30°04' W 093°22'0 0.0
2018-Feb-16 01:29N 30°04' W 093°22'0 0.0
2018-Feb-16 00:59N 30°04' W 093°22'0 0.0
2018-Feb-16 00:23N 30°04' W 093°22'0 0.0
2018-Feb-15 23:56N 30°04' W 093°22'0 0.0
2018-Feb-15 23:29N 30°04' W 093°22'0 0.0
2018-Feb-15 22:56N 30°04' W 093°22'0 0.0
2018-Feb-15 22:29N 30°04' W 093°22'0 0.0
2018-Feb-15 21:59N 30°04' W 093°22'0 0.0
2018-Feb-15 21:29N 30°04' W 093°22'0 0.0
2018-Feb-15 20:59N 30°04' W 093°22'0 0.0
2018-Feb-15 20:30N 30°04' W 093°22'0 0.9
2018-Feb-15 20:00N 30°04' W 093°21'0 0.0
2018-Feb-15 19:30N 30°04' W 093°21'0 0.0
2018-Feb-15 19:00N 30°04' W 093°21'0 0.0
2018-Feb-15 18:30N 30°04' W 093°21'0 0.0
2018-Feb-15 18:00N 30°04' W 093°21'0 0.0
2018-Feb-15 17:30N 30°04' W 093°21'0 0.8
2018-Feb-15 16:58N 30°04' W 093°22'0 0.0
2018-Feb-15 16:28N 30°04' W 093°22'0 0.0
2018-Feb-15 15:58N 30°04' W 093°22'0 0.0
2018-Feb-15 15:28N 30°04' W 093°22'0 0.0
2018-Feb-15 14:58N 30°04' W 093°22'0 0.0
2018-Feb-15 14:28N 30°04' W 093°22'0 0.0
2018-Feb-15 13:58N 30°04' W 093°22'0 0.0
2018-Feb-15 13:28N 30°04' W 093°22'0 0.0
2018-Feb-15 12:58N 30°04' W 093°22'0 0.0
2018-Feb-15 12:28N 30°04' W 093°22'0 0.0
2018-Feb-15 11:58N 30°04' W 093°22'0 0.0
2018-Feb-15 11:28N 30°04' W 093°22'0 0.0
2018-Feb-15 10:58N 30°04' W 093°22'0 0.0
2018-Feb-15 10:28N 30°04' W 093°22'0 0.0
2018-Feb-15 09:58N 30°04' W 093°22'0 0.0
2018-Feb-15 09:28N 30°04' W 093°22'0 0.0
2018-Feb-15 08:58N 30°04' W 093°22'0 0.0
2018-Feb-15 08:28N 30°04' W 093°22'0 0.0
2018-Feb-15 07:58N 30°04' W 093°22'0 0.0
2018-Feb-15 07:28N 30°04' W 093°22'0 0.0
2018-Feb-15 06:58N 30°04' W 093°22'0 0.0
2018-Feb-15 06:25N 30°04' W 093°22'0 0.0
2018-Feb-15 05:58N 30°04' W 093°22'0 0.0
2018-Feb-15 05:28N 30°04' W 093°22'0 0.0
2018-Feb-15 04:55N 30°04' W 093°22'0 0.0
2018-Feb-15 04:28N 30°04' W 093°22'0 0.0
2018-Feb-15 03:58N 30°04' W 093°22'0 0.0
2018-Feb-15 03:28N 30°04' W 093°22'0 0.0
2018-Feb-15 02:46N 30°04' W 093°22'0 0.0
2018-Feb-15 02:22N 30°04' W 093°22'0 0.0
2018-Feb-15 01:58N 30°04' W 093°22'0 0.0
2018-Feb-15 01:28N 30°04' W 093°22'0 0.0
2018-Feb-15 00:58N 30°04' W 093°22'0 0.0
2018-Feb-15 00:28N 30°04' W 093°22'0 0.0
2018-Feb-14 23:58N 30°04' W 093°22'0 0.2
2018-Feb-14 23:30N 30°04' W 093°22'2 3.8
2018-Feb-14 23:00N 30°05' W 093°20'3 6.4
2018-Feb-14 22:30N 30°08' W 093°20'0 0.8
2018-Feb-14 21:59N 30°08' W 093°19'0 0.1
2018-Feb-14 21:26N 30°08' W 093°19'0 0.0
2018-Feb-14 20:59N 30°08' W 093°19'0 0.0
2018-Feb-14 20:29N 30°08' W 093°19'0 0.0
2018-Feb-14 20:01N 30°08' W 093°19'2 4.7
2018-Feb-14 19:30N 30°06' W 093°20'3 5.7
2018-Feb-14 19:00N 30°04' W 093°22'0 0.4
2018-Feb-14 18:29N 30°04' W 093°22'0 0.0
2018-Feb-14 17:59N 30°04' W 093°22'0 0.0
2018-Feb-14 17:30N 30°04' W 093°22'0 0.0
2018-Feb-14 17:00N 30°04' W 093°22'0 0.0
2018-Feb-14 16:30N 30°04' W 093°22'0 0.0
2018-Feb-14 16:00N 30°04' W 093°22'0 0.0
2018-Feb-14 15:30N 30°04' W 093°22'0 0.0
2018-Feb-14 15:00N 30°04' W 093°22'0 0.0
2018-Feb-14 14:30N 30°04' W 093°22'0 0.9
2018-Feb-14 14:00N 30°04' W 093°21'0 0.9
2018-Feb-14 13:30N 30°04' W 093°22'0 0.0
2018-Feb-14 13:00N 30°04' W 093°22'0 0.0
2018-Feb-14 12:30N 30°04' W 093°22'0 0.0
2018-Feb-14 12:00N 30°04' W 093°22'0 0.0
2018-Feb-14 11:30N 30°04' W 093°22'0 0.0
2018-Feb-14 11:00N 30°04' W 093°22'0 0.0
2018-Feb-14 10:30N 30°04' W 093°22'0 0.0
2018-Feb-14 10:00N 30°04' W 093°22'0 0.0
2018-Feb-14 09:30N 30°04' W 093°22'0 0.0
2018-Feb-14 09:00N 30°04' W 093°22'0 0.0
2018-Feb-14 08:30N 30°04' W 093°22'0 0.0
2018-Feb-14 08:00N 30°04' W 093°22'0 0.0
2018-Feb-14 07:30N 30°04' W 093°22'0 0.0
2018-Feb-14 06:59N 30°04' W 093°22'0 0.0
2018-Feb-14 06:30N 30°04' W 093°22'0 0.0
2018-Feb-14 06:00N 30°04' W 093°22'0 0.0
2018-Feb-14 05:30N 30°04' W 093°22'0 0.0
2018-Feb-14 05:00N 30°04' W 093°22'0 0.0
2018-Feb-14 04:29N 30°04' W 093°22'0 0.0
2018-Feb-14 04:00N 30°04' W 093°22'0 0.0
2018-Feb-14 03:30N 30°04' W 093°22'0 0.0
2018-Feb-14 02:58N 30°04' W 093°22'0 0.0
2018-Feb-14 02:30N 30°04' W 093°22'0 0.0
2018-Feb-14 02:00N 30°04' W 093°22'0 0.0
2018-Feb-14 01:30N 30°04' W 093°22'0 0.1
2018-Feb-14 00:58N 30°04' W 093°22'0 0.0
2018-Feb-14 00:30N 30°04' W 093°22'0 0.0
2018-Feb-14 00:00N 30°04' W 093°22'1 1.8
2018-Feb-13 23:30N 30°04' W 093°23'3 5.3
2018-Feb-13 23:00N 30°04' W 093°26'3 6.2
2018-Feb-13 22:30N 30°04' W 093°29'3 6.3
2018-Feb-13 22:00N 30°04' W 093°33'3 4.9
2018-Feb-13 21:28N 30°04' W 093°36'4 6.6
2018-Feb-13 20:57N 30°04' W 093°40'3 6.0
2018-Feb-13 20:30N 30°03' W 093°43'3 6.1
2018-Feb-13 20:00N 30°01' W 093°45'3 6.2
2018-Feb-13 19:30N 29°59' W 093°48'3 6.6
2018-Feb-13 19:00N 29°57' W 093°52'  

Dump ship's entire track history